sensor_id;sensor_type;location;lat;lon;timestamp;P1;durP1;ratioP1;P2;durP2;ratioP2
6679;SDS011;3376;42.664;23.346;2022-12-07T00:02:26;30.37;;;22.07;;
6679;SDS011;3376;42.664;23.346;2022-12-07T00:04:53;42.43;;;19.83;;
6679;SDS011;3376;42.664;23.346;2022-12-07T00:07:20;34.87;;;21.50;;
6679;SDS011;3376;42.664;23.346;2022-12-07T00:09:48;34.20;;;19.83;;
6679;SDS011;3376;42.664;23.346;2022-12-07T00:12:15;38.87;;;20.40;;
6679;SDS011;3376;42.664;23.346;2022-12-07T00:14:41;33.60;;;19.90;;
6679;SDS011;3376;42.664;23.346;2022-12-07T00:17:08;30.20;;;18.67;;
6679;SDS011;3376;42.664;23.346;2022-12-07T00:19:35;27.57;;;17.50;;
6679;SDS011;3376;42.664;23.346;2022-12-07T00:22:01;26.03;;;17.73;;
6679;SDS011;3376;42.664;23.346;2022-12-07T00:24:28;29.70;;;19.17;;
6679;SDS011;3376;42.664;23.346;2022-12-07T00:26:56;27.20;;;18.03;;
6679;SDS011;3376;42.664;23.346;2022-12-07T00:29:23;36.17;;;18.70;;
6679;SDS011;3376;42.664;23.346;2022-12-07T00:31:50;25.53;;;17.93;;
6679;SDS011;3376;42.664;23.346;2022-12-07T00:34:18;25.43;;;18.07;;
6679;SDS011;3376;42.664;23.346;2022-12-07T00:36:46;32.97;;;19.43;;
6679;SDS011;3376;42.664;23.346;2022-12-07T00:39:13;29.67;;;18.57;;
6679;SDS011;3376;42.664;23.346;2022-12-07T00:41:40;33.73;;;20.77;;
6679;SDS011;3376;42.664;23.346;2022-12-07T00:44:08;31.77;;;20.37;;
6679;SDS011;3376;42.664;23.346;2022-12-07T00:46:35;32.80;;;21.67;;
6679;SDS011;3376;42.664;23.346;2022-12-07T00:49:02;30.00;;;19.27;;
6679;SDS011;3376;42.664;23.346;2022-12-07T00:51:29;34.53;;;20.17;;
6679;SDS011;3376;42.664;23.346;2022-12-07T00:53:56;35.63;;;20.70;;
6679;SDS011;3376;42.664;23.346;2022-12-07T00:56:23;35.20;;;21.03;;
6679;SDS011;3376;42.664;23.346;2022-12-07T00:58:52;28.77;;;19.40;;
6679;SDS011;3376;42.664;23.346;2022-12-07T01:01:22;31.80;;;19.77;;
6679;SDS011;3376;42.664;23.346;2022-12-07T01:03:50;36.13;;;20.40;;
6679;SDS011;3376;42.664;23.346;2022-12-07T01:06:17;27.20;;;19.67;;
6679;SDS011;3376;42.664;23.346;2022-12-07T01:08:45;35.87;;;20.17;;
6679;SDS011;3376;42.664;23.346;2022-12-07T01:11:12;29.20;;;19.93;;
6679;SDS011;3376;42.664;23.346;2022-12-07T01:13:41;29.33;;;19.40;;
6679;SDS011;3376;42.664;23.346;2022-12-07T01:16:09;38.00;;;21.57;;
6679;SDS011;3376;42.664;23.346;2022-12-07T01:18:38;25.40;;;19.43;;
6679;SDS011;3376;42.664;23.346;2022-12-07T01:21:06;28.80;;;20.53;;
6679;SDS011;3376;42.664;23.346;2022-12-07T01:23:35;32.27;;;21.00;;
6679;SDS011;3376;42.664;23.346;2022-12-07T01:26:03;36.50;;;20.57;;
6679;SDS011;3376;42.664;23.346;2022-12-07T01:28:32;37.67;;;19.43;;
6679;SDS011;3376;42.664;23.346;2022-12-07T01:30:59;27.03;;;19.90;;
6679;SDS011;3376;42.664;23.346;2022-12-07T01:33:27;31.33;;;20.70;;
6679;SDS011;3376;42.664;23.346;2022-12-07T01:35:56;34.10;;;21.67;;
6679;SDS011;3376;42.664;23.346;2022-12-07T01:38:27;29.97;;;20.83;;
6679;SDS011;3376;42.664;23.346;2022-12-07T01:40:54;31.60;;;20.80;;
6679;SDS011;3376;42.664;23.346;2022-12-07T01:43:22;25.97;;;19.23;;
6679;SDS011;3376;42.664;23.346;2022-12-07T01:45:51;32.00;;;20.67;;
6679;SDS011;3376;42.664;23.346;2022-12-07T01:48:19;26.57;;;19.73;;
6679;SDS011;3376;42.664;23.346;2022-12-07T01:50:50;32.07;;;21.63;;
6679;SDS011;3376;42.664;23.346;2022-12-07T01:53:21;35.33;;;21.70;;
6679;SDS011;3376;42.664;23.346;2022-12-07T01:55:51;36.83;;;22.07;;
6679;SDS011;3376;42.664;23.346;2022-12-07T01:58:19;30.60;;;21.93;;
6679;SDS011;3376;42.664;23.346;2022-12-07T02:00:47;30.73;;;20.33;;
6679;SDS011;3376;42.664;23.346;2022-12-07T02:03:15;31.13;;;21.40;;
6679;SDS011;3376;42.664;23.346;2022-12-07T02:05:45;32.50;;;20.60;;
6679;SDS011;3376;42.664;23.346;2022-12-07T02:08:12;34.00;;;21.70;;
6679;SDS011;3376;42.664;23.346;2022-12-07T02:10:41;34.60;;;21.97;;
6679;SDS011;3376;42.664;23.346;2022-12-07T02:13:09;36.80;;;22.43;;
6679;SDS011;3376;42.664;23.346;2022-12-07T02:15:44;40.00;;;21.53;;
6679;SDS011;3376;42.664;23.346;2022-12-07T02:18:25;34.63;;;19.87;;
6679;SDS011;3376;42.664;23.346;2022-12-07T02:21:06;40.07;;;21.50;;
6679;SDS011;3376;42.664;23.346;2022-12-07T02:23:41;37.53;;;20.80;;
6679;SDS011;3376;42.664;23.346;2022-12-07T02:29:23;33.23;;;21.33;;
6679;SDS011;3376;42.664;23.346;2022-12-07T02:31:55;35.77;;;23.53;;
6679;SDS011;3376;42.664;23.346;2022-12-07T02:34:34;38.27;;;22.67;;
6679;SDS011;3376;42.664;23.346;2022-12-07T02:37:09;33.60;;;23.03;;
6679;SDS011;3376;42.664;23.346;2022-12-07T02:39:46;40.90;;;24.77;;
6679;SDS011;3376;42.664;23.346;2022-12-07T02:42:17;41.60;;;25.70;;
6679;SDS011;3376;42.664;23.346;2022-12-07T02:44:50;35.90;;;23.87;;
6679;SDS011;3376;42.664;23.346;2022-12-07T02:47:18;29.67;;;21.07;;
6679;SDS011;3376;42.664;23.346;2022-12-07T02:49:47;39.63;;;21.90;;
6679;SDS011;3376;42.664;23.346;2022-12-07T02:52:15;37.20;;;22.60;;
6679;SDS011;3376;42.664;23.346;2022-12-07T02:54:42;36.03;;;22.47;;
6679;SDS011;3376;42.664;23.346;2022-12-07T02:57:14;41.10;;;25.33;;
6679;SDS011;3376;42.664;23.346;2022-12-07T02:59:57;42.10;;;24.60;;
6679;SDS011;3376;42.664;23.346;2022-12-07T03:02:30;47.00;;;27.03;;
6679;SDS011;3376;42.664;23.346;2022-12-07T03:05:12;45.60;;;26.90;;
6679;SDS011;3376;42.664;23.346;2022-12-07T03:07:51;41.00;;;25.10;;
6679;SDS011;3376;42.664;23.346;2022-12-07T03:10:27;43.63;;;26.90;;
6679;SDS011;3376;42.664;23.346;2022-12-07T03:13:00;44.20;;;24.93;;
6679;SDS011;3376;42.664;23.346;2022-12-07T03:15:33;36.83;;;23.43;;
6679;SDS011;3376;42.664;23.346;2022-12-07T03:18:06;41.70;;;23.40;;
6679;SDS011;3376;42.664;23.346;2022-12-07T03:20:35;33.50;;;21.17;;
6679;SDS011;3376;42.664;23.346;2022-12-07T03:23:05;36.20;;;22.87;;
6679;SDS011;3376;42.664;23.346;2022-12-07T03:25:34;43.13;;;24.63;;
6679;SDS011;3376;42.664;23.346;2022-12-07T03:28:06;33.27;;;21.53;;
6679;SDS011;3376;42.664;23.346;2022-12-07T03:30:37;33.77;;;22.43;;
6679;SDS011;3376;42.664;23.346;2022-12-07T03:33:10;44.27;;;23.67;;
6679;SDS011;3376;42.664;23.346;2022-12-07T03:35:40;43.50;;;23.10;;
6679;SDS011;3376;42.664;23.346;2022-12-07T03:38:13;43.30;;;24.43;;
6679;SDS011;3376;42.664;23.346;2022-12-07T03:40:45;39.13;;;22.67;;
6679;SDS011;3376;42.664;23.346;2022-12-07T03:43:17;44.43;;;23.67;;
6679;SDS011;3376;42.664;23.346;2022-12-07T03:45:48;45.10;;;24.67;;
6679;SDS011;3376;42.664;23.346;2022-12-07T03:48:24;33.93;;;20.67;;
6679;SDS011;3376;42.664;23.346;2022-12-07T03:51:00;38.90;;;23.20;;
6679;SDS011;3376;42.664;23.346;2022-12-07T03:53:33;36.50;;;22.77;;
6679;SDS011;3376;42.664;23.346;2022-12-07T03:56:06;37.73;;;22.70;;
6679;SDS011;3376;42.664;23.346;2022-12-07T03:58:34;37.10;;;22.70;;
6679;SDS011;3376;42.664;23.346;2022-12-07T04:01:03;34.93;;;21.70;;
6679;SDS011;3376;42.664;23.346;2022-12-07T04:03:30;38.57;;;23.77;;
6679;SDS011;3376;42.664;23.346;2022-12-07T04:05:57;35.93;;;22.83;;
6679;SDS011;3376;42.664;23.346;2022-12-07T04:08:24;40.53;;;22.73;;
6679;SDS011;3376;42.664;23.346;2022-12-07T04:10:51;40.20;;;23.17;;
6679;SDS011;3376;42.664;23.346;2022-12-07T04:13:18;40.73;;;24.47;;
6679;SDS011;3376;42.664;23.346;2022-12-07T04:15:44;63.10;;;33.10;;
6679;SDS011;3376;42.664;23.346;2022-12-07T04:18:12;44.30;;;25.97;;
6679;SDS011;3376;42.664;23.346;2022-12-07T04:20:39;40.10;;;25.20;;
6679;SDS011;3376;42.664;23.346;2022-12-07T04:23:06;42.90;;;24.03;;
6679;SDS011;3376;42.664;23.346;2022-12-07T04:25:33;40.73;;;24.33;;
6679;SDS011;3376;42.664;23.346;2022-12-07T04:27:59;38.63;;;24.13;;
6679;SDS011;3376;42.664;23.346;2022-12-07T04:30:26;43.33;;;25.30;;
6679;SDS011;3376;42.664;23.346;2022-12-07T04:32:53;40.13;;;23.90;;
6679;SDS011;3376;42.664;23.346;2022-12-07T04:35:21;36.30;;;24.57;;
6679;SDS011;3376;42.664;23.346;2022-12-07T04:37:48;40.30;;;24.07;;
6679;SDS011;3376;42.664;23.346;2022-12-07T04:40:14;38.70;;;23.53;;
6679;SDS011;3376;42.664;23.346;2022-12-07T04:42:41;40.53;;;24.03;;
6679;SDS011;3376;42.664;23.346;2022-12-07T04:45:08;40.67;;;23.57;;
6679;SDS011;3376;42.664;23.346;2022-12-07T04:47:35;40.73;;;23.67;;
6679;SDS011;3376;42.664;23.346;2022-12-07T04:50:02;37.70;;;23.97;;
6679;SDS011;3376;42.664;23.346;2022-12-07T04:52:31;37.87;;;24.93;;
6679;SDS011;3376;42.664;23.346;2022-12-07T04:54:57;40.53;;;24.40;;
6679;SDS011;3376;42.664;23.346;2022-12-07T04:57:24;45.17;;;23.43;;
6679;SDS011;3376;42.664;23.346;2022-12-07T04:59:51;45.70;;;24.43;;
6679;SDS011;3376;42.664;23.346;2022-12-07T05:02:18;40.43;;;23.40;;
6679;SDS011;3376;42.664;23.346;2022-12-07T05:04:44;41.03;;;24.70;;
6679;SDS011;3376;42.664;23.346;2022-12-07T05:07:11;41.30;;;23.93;;
6679;SDS011;3376;42.664;23.346;2022-12-07T05:09:39;44.23;;;23.57;;
6679;SDS011;3376;42.664;23.346;2022-12-07T05:12:06;34.23;;;22.20;;
6679;SDS011;3376;42.664;23.346;2022-12-07T05:14:33;35.43;;;23.30;;
6679;SDS011;3376;42.664;23.346;2022-12-07T05:16:59;42.80;;;25.53;;
6679;SDS011;3376;42.664;23.346;2022-12-07T05:19:26;36.60;;;23.03;;
6679;SDS011;3376;42.664;23.346;2022-12-07T05:21:54;34.07;;;22.07;;
6679;SDS011;3376;42.664;23.346;2022-12-07T05:24:21;35.50;;;22.00;;
6679;SDS011;3376;42.664;23.346;2022-12-07T05:26:49;32.77;;;22.97;;
6679;SDS011;3376;42.664;23.346;2022-12-07T05:29:16;37.60;;;21.53;;
6679;SDS011;3376;42.664;23.346;2022-12-07T05:31:43;39.17;;;22.77;;
6679;SDS011;3376;42.664;23.346;2022-12-07T05:34:10;45.63;;;23.83;;
6679;SDS011;3376;42.664;23.346;2022-12-07T05:36:37;36.17;;;22.97;;
6679;SDS011;3376;42.664;23.346;2022-12-07T05:39:04;41.53;;;24.60;;
6679;SDS011;3376;42.664;23.346;2022-12-07T05:41:31;36.87;;;24.50;;
6679;SDS011;3376;42.664;23.346;2022-12-07T05:44:16;42.43;;;25.70;;
6679;SDS011;3376;42.664;23.346;2022-12-07T05:46:43;38.63;;;23.63;;
6679;SDS011;3376;42.664;23.346;2022-12-07T05:49:10;36.87;;;23.23;;
6679;SDS011;3376;42.664;23.346;2022-12-07T05:51:36;43.50;;;23.17;;
6679;SDS011;3376;42.664;23.346;2022-12-07T05:54:03;36.80;;;21.80;;
6679;SDS011;3376;42.664;23.346;2022-12-07T05:56:30;40.63;;;21.83;;
6679;SDS011;3376;42.664;23.346;2022-12-07T05:58:57;37.00;;;21.00;;
6679;SDS011;3376;42.664;23.346;2022-12-07T06:01:42;43.17;;;23.07;;
6679;SDS011;3376;42.664;23.346;2022-12-07T06:04:09;36.97;;;20.93;;
6679;SDS011;3376;42.664;23.346;2022-12-07T06:06:36;39.33;;;20.80;;
6679;SDS011;3376;42.664;23.346;2022-12-07T06:09:03;43.00;;;22.03;;
6679;SDS011;3376;42.664;23.346;2022-12-07T06:11:30;37.97;;;23.63;;
6679;SDS011;3376;42.664;23.346;2022-12-07T06:14:14;39.50;;;23.00;;
6679;SDS011;3376;42.664;23.346;2022-12-07T06:16:42;41.10;;;24.40;;
6679;SDS011;3376;42.664;23.346;2022-12-07T06:19:09;54.60;;;30.17;;
6679;SDS011;3376;42.664;23.346;2022-12-07T06:21:36;46.07;;;23.20;;
6679;SDS011;3376;42.664;23.346;2022-12-07T06:24:03;38.43;;;22.60;;
6679;SDS011;3376;42.664;23.346;2022-12-07T06:26:30;38.57;;;22.17;;
6679;SDS011;3376;42.664;23.346;2022-12-07T06:28:57;45.47;;;22.53;;
6679;SDS011;3376;42.664;23.346;2022-12-07T06:31:24;35.97;;;22.47;;
6679;SDS011;3376;42.664;23.346;2022-12-07T06:33:56;43.80;;;22.47;;
6679;SDS011;3376;42.664;23.346;2022-12-07T06:36:23;33.70;;;20.50;;
6679;SDS011;3376;42.664;23.346;2022-12-07T06:38:50;35.03;;;20.43;;
6679;SDS011;3376;42.664;23.346;2022-12-07T06:41:17;37.33;;;22.03;;
6679;SDS011;3376;42.664;23.346;2022-12-07T06:43:44;36.10;;;20.53;;
6679;SDS011;3376;42.664;23.346;2022-12-07T06:46:10;34.87;;;21.83;;
6679;SDS011;3376;42.664;23.346;2022-12-07T06:48:37;36.70;;;21.13;;
6679;SDS011;3376;42.664;23.346;2022-12-07T06:51:05;47.30;;;22.00;;
6679;SDS011;3376;42.664;23.346;2022-12-07T06:53:32;40.77;;;22.97;;
6679;SDS011;3376;42.664;23.346;2022-12-07T06:55:59;41.87;;;20.37;;
6679;SDS011;3376;42.664;23.346;2022-12-07T06:58:26;39.57;;;21.33;;
6679;SDS011;3376;42.664;23.346;2022-12-07T07:00:53;42.67;;;22.10;;
6679;SDS011;3376;42.664;23.346;2022-12-07T07:03:20;45.13;;;21.77;;
6679;SDS011;3376;42.664;23.346;2022-12-07T07:05:47;35.83;;;21.73;;
6679;SDS011;3376;42.664;23.346;2022-12-07T07:08:15;42.93;;;22.53;;
6679;SDS011;3376;42.664;23.346;2022-12-07T07:10:42;46.17;;;21.37;;
6679;SDS011;3376;42.664;23.346;2022-12-07T07:13:09;32.90;;;19.47;;
6679;SDS011;3376;42.664;23.346;2022-12-07T07:15:37;34.97;;;19.63;;
6679;SDS011;3376;42.664;23.346;2022-12-07T07:18:04;30.20;;;20.53;;
6679;SDS011;3376;42.664;23.346;2022-12-07T07:20:31;37.70;;;22.43;;
6679;SDS011;3376;42.664;23.346;2022-12-07T07:22:58;37.47;;;22.13;;
6679;SDS011;3376;42.664;23.346;2022-12-07T07:25:26;43.13;;;21.83;;
6679;SDS011;3376;42.664;23.346;2022-12-07T07:27:53;45.80;;;22.87;;
6679;SDS011;3376;42.664;23.346;2022-12-07T07:30:20;38.17;;;22.80;;
6679;SDS011;3376;42.664;23.346;2022-12-07T07:32:46;39.30;;;22.40;;
6679;SDS011;3376;42.664;23.346;2022-12-07T07:35:13;50.63;;;27.73;;
6679;SDS011;3376;42.664;23.346;2022-12-07T07:37:40;43.70;;;26.43;;
6679;SDS011;3376;42.664;23.346;2022-12-07T07:40:08;45.97;;;26.30;;
6679;SDS011;3376;42.664;23.346;2022-12-07T07:42:36;43.87;;;25.00;;
6679;SDS011;3376;42.664;23.346;2022-12-07T07:45:04;43.93;;;25.17;;
6679;SDS011;3376;42.664;23.346;2022-12-07T07:47:31;43.63;;;25.43;;
6679;SDS011;3376;42.664;23.346;2022-12-07T07:49:58;44.10;;;25.90;;
6679;SDS011;3376;42.664;23.346;2022-12-07T07:52:25;41.13;;;24.17;;
6679;SDS011;3376;42.664;23.346;2022-12-07T07:54:52;38.77;;;23.50;;
6679;SDS011;3376;42.664;23.346;2022-12-07T07:57:19;41.70;;;23.10;;
6679;SDS011;3376;42.664;23.346;2022-12-07T07:59:47;39.17;;;22.20;;
6679;SDS011;3376;42.664;23.346;2022-12-07T08:02:15;37.43;;;22.37;;
6679;SDS011;3376;42.664;23.346;2022-12-07T08:04:42;32.10;;;20.63;;
6679;SDS011;3376;42.664;23.346;2022-12-07T08:07:10;36.27;;;21.23;;
6679;SDS011;3376;42.664;23.346;2022-12-07T08:09:37;30.07;;;20.50;;
6679;SDS011;3376;42.664;23.346;2022-12-07T08:12:05;30.93;;;20.30;;
6679;SDS011;3376;42.664;23.346;2022-12-07T08:14:32;31.27;;;20.80;;
6679;SDS011;3376;42.664;23.346;2022-12-07T08:17:01;28.53;;;21.30;;
6679;SDS011;3376;42.664;23.346;2022-12-07T08:19:28;29.00;;;19.87;;
6679;SDS011;3376;42.664;23.346;2022-12-07T08:21:55;28.93;;;19.23;;
6679;SDS011;3376;42.664;23.346;2022-12-07T08:24:21;27.30;;;18.20;;
6679;SDS011;3376;42.664;23.346;2022-12-07T08:26:48;30.00;;;19.10;;
6679;SDS011;3376;42.664;23.346;2022-12-07T08:29:15;31.67;;;19.60;;
6679;SDS011;3376;42.664;23.346;2022-12-07T08:31:42;27.13;;;20.07;;
6679;SDS011;3376;42.664;23.346;2022-12-07T08:34:11;29.23;;;20.50;;
6679;SDS011;3376;42.664;23.346;2022-12-07T08:36:38;33.20;;;21.33;;
6679;SDS011;3376;42.664;23.346;2022-12-07T08:39:05;39.50;;;21.63;;
6679;SDS011;3376;42.664;23.346;2022-12-07T08:41:32;33.13;;;20.83;;
6679;SDS011;3376;42.664;23.346;2022-12-07T08:43:59;30.30;;;19.53;;
6679;SDS011;3376;42.664;23.346;2022-12-07T08:46:26;31.87;;;19.80;;
6679;SDS011;3376;42.664;23.346;2022-12-07T08:48:58;32.10;;;20.10;;
6679;SDS011;3376;42.664;23.346;2022-12-07T08:51:31;26.83;;;20.50;;
6679;SDS011;3376;42.664;23.346;2022-12-07T08:53:58;43.17;;;23.50;;
6679;SDS011;3376;42.664;23.346;2022-12-07T08:56:27;43.93;;;25.80;;
6679;SDS011;3376;42.664;23.346;2022-12-07T08:58:54;37.87;;;25.90;;
6679;SDS011;3376;42.664;23.346;2022-12-07T09:01:21;35.83;;;21.97;;
6679;SDS011;3376;42.664;23.346;2022-12-07T09:03:47;35.30;;;21.80;;
6679;SDS011;3376;42.664;23.346;2022-12-07T09:06:14;29.93;;;20.83;;
6679;SDS011;3376;42.664;23.346;2022-12-07T09:08:45;38.93;;;23.60;;
6679;SDS011;3376;42.664;23.346;2022-12-07T09:11:13;39.23;;;24.57;;
6679;SDS011;3376;42.664;23.346;2022-12-07T09:13:40;38.47;;;23.93;;
6679;SDS011;3376;42.664;23.346;2022-12-07T09:16:07;32.40;;;22.37;;
6679;SDS011;3376;42.664;23.346;2022-12-07T09:18:33;30.37;;;22.63;;
6679;SDS011;3376;42.664;23.346;2022-12-07T09:21:00;34.50;;;23.37;;
6679;SDS011;3376;42.664;23.346;2022-12-07T09:23:27;31.80;;;22.40;;
6679;SDS011;3376;42.664;23.346;2022-12-07T09:25:58;41.67;;;24.73;;
6679;SDS011;3376;42.664;23.346;2022-12-07T09:28:25;40.00;;;23.57;;
6679;SDS011;3376;42.664;23.346;2022-12-07T09:30:52;41.33;;;24.93;;
6679;SDS011;3376;42.664;23.346;2022-12-07T09:33:18;39.67;;;23.93;;
6679;SDS011;3376;42.664;23.346;2022-12-07T09:35:45;39.83;;;25.53;;
6679;SDS011;3376;42.664;23.346;2022-12-07T09:38:12;44.20;;;25.30;;
6679;SDS011;3376;42.664;23.346;2022-12-07T09:40:40;40.97;;;25.60;;
6679;SDS011;3376;42.664;23.346;2022-12-07T09:43:13;39.37;;;26.07;;
6679;SDS011;3376;42.664;23.346;2022-12-07T09:45:41;39.53;;;25.63;;
6679;SDS011;3376;42.664;23.346;2022-12-07T09:48:13;62.30;;;28.53;;
6679;SDS011;3376;42.664;23.346;2022-12-07T09:50:44;41.00;;;27.07;;
6679;SDS011;3376;42.664;23.346;2022-12-07T09:53:13;45.23;;;28.10;;
6679;SDS011;3376;42.664;23.346;2022-12-07T09:55:44;40.27;;;27.20;;
6679;SDS011;3376;42.664;23.346;2022-12-07T09:58:13;46.77;;;28.57;;
6679;SDS011;3376;42.664;23.346;2022-12-07T10:00:47;44.57;;;26.47;;
6679;SDS011;3376;42.664;23.346;2022-12-07T10:03:14;36.70;;;24.97;;
6679;SDS011;3376;42.664;23.346;2022-12-07T10:05:42;47.67;;;26.97;;
6679;SDS011;3376;42.664;23.346;2022-12-07T10:08:11;39.13;;;24.60;;
6679;SDS011;3376;42.664;23.346;2022-12-07T10:10:40;37.70;;;25.30;;
6679;SDS011;3376;42.664;23.346;2022-12-07T10:13:08;45.00;;;26.13;;
6679;SDS011;3376;42.664;23.346;2022-12-07T10:15:45;44.13;;;26.93;;
6679;SDS011;3376;42.664;23.346;2022-12-07T10:18:18;42.87;;;25.77;;
6679;SDS011;3376;42.664;23.346;2022-12-07T10:21:00;37.67;;;23.63;;
6679;SDS011;3376;42.664;23.346;2022-12-07T10:23:29;37.90;;;24.50;;
6679;SDS011;3376;42.664;23.346;2022-12-07T10:25:56;43.50;;;25.03;;
6679;SDS011;3376;42.664;23.346;2022-12-07T10:28:22;37.93;;;22.50;;
6679;SDS011;3376;42.664;23.346;2022-12-07T10:30:52;40.07;;;23.93;;
6679;SDS011;3376;42.664;23.346;2022-12-07T10:33:28;41.43;;;23.40;;
6679;SDS011;3376;42.664;23.346;2022-12-07T10:35:57;33.13;;;23.50;;
6679;SDS011;3376;42.664;23.346;2022-12-07T10:38:24;41.70;;;25.30;;
6679;SDS011;3376;42.664;23.346;2022-12-07T10:41:02;45.87;;;27.63;;
6679;SDS011;3376;42.664;23.346;2022-12-07T10:43:31;39.60;;;26.27;;
6679;SDS011;3376;42.664;23.346;2022-12-07T10:46:10;45.70;;;29.47;;
6679;SDS011;3376;42.664;23.346;2022-12-07T10:48:50;40.20;;;25.10;;
6679;SDS011;3376;42.664;23.346;2022-12-07T10:51:28;37.30;;;22.97;;
6679;SDS011;3376;42.664;23.346;2022-12-07T10:54:08;33.97;;;24.50;;
6679;SDS011;3376;42.664;23.346;2022-12-07T10:56:43;35.40;;;22.77;;
6679;SDS011;3376;42.664;23.346;2022-12-07T10:59:24;42.57;;;23.13;;
6679;SDS011;3376;42.664;23.346;2022-12-07T11:02:14;32.13;;;22.20;;
6679;SDS011;3376;42.664;23.346;2022-12-07T11:04:59;41.17;;;22.77;;
6679;SDS011;3376;42.664;23.346;2022-12-07T11:07:38;29.73;;;21.60;;
6679;SDS011;3376;42.664;23.346;2022-12-07T11:10:13;35.43;;;23.13;;
6679;SDS011;3376;42.664;23.346;2022-12-07T11:12:47;32.57;;;22.47;;
6679;SDS011;3376;42.664;23.346;2022-12-07T11:15:24;34.77;;;22.47;;
6679;SDS011;3376;42.664;23.346;2022-12-07T11:17:58;43.53;;;23.60;;
6679;SDS011;3376;42.664;23.346;2022-12-07T11:20:35;25.60;;;19.60;;
6679;SDS011;3376;42.664;23.346;2022-12-07T11:23:12;33.67;;;21.87;;
6679;SDS011;3376;42.664;23.346;2022-12-07T11:25:46;30.30;;;21.37;;
6679;SDS011;3376;42.664;23.346;2022-12-07T11:28:22;32.90;;;21.07;;
6679;SDS011;3376;42.664;23.346;2022-12-07T11:31:04;29.67;;;21.37;;
6679;SDS011;3376;42.664;23.346;2022-12-07T11:33:43;49.57;;;21.60;;
6679;SDS011;3376;42.664;23.346;2022-12-07T11:36:17;29.67;;;17.07;;
6679;SDS011;3376;42.664;23.346;2022-12-07T11:38:57;22.77;;;17.40;;
6679;SDS011;3376;42.664;23.346;2022-12-07T11:41:28;23.50;;;16.33;;
6679;SDS011;3376;42.664;23.346;2022-12-07T11:43:59;23.07;;;17.30;;
6679;SDS011;3376;42.664;23.346;2022-12-07T11:46:35;20.43;;;16.80;;
6679;SDS011;3376;42.664;23.346;2022-12-07T11:49:14;20.20;;;17.53;;
6679;SDS011;3376;42.664;23.346;2022-12-07T11:51:48;27.20;;;18.20;;
6679;SDS011;3376;42.664;23.346;2022-12-07T11:54:19;32.33;;;16.27;;
6679;SDS011;3376;42.664;23.346;2022-12-07T11:56:50;33.27;;;18.80;;
6679;SDS011;3376;42.664;23.346;2022-12-07T11:59:22;21.03;;;16.80;;
6679;SDS011;3376;42.664;23.346;2022-12-07T12:01:55;24.60;;;18.03;;
6679;SDS011;3376;42.664;23.346;2022-12-07T12:04:30;20.97;;;18.60;;
6679;SDS011;3376;42.664;23.346;2022-12-07T12:07:06;25.17;;;16.53;;
6679;SDS011;3376;42.664;23.346;2022-12-07T12:09:34;27.00;;;18.27;;
6679;SDS011;3376;42.664;23.346;2022-12-07T12:12:19;23.47;;;16.40;;
6679;SDS011;3376;42.664;23.346;2022-12-07T12:15:16;26.10;;;17.77;;
6679;SDS011;3376;42.664;23.346;2022-12-07T12:18:17;18.73;;;16.70;;
6679;SDS011;3376;42.664;23.346;2022-12-07T12:20:55;30.00;;;18.20;;
6679;SDS011;3376;42.664;23.346;2022-12-07T12:23:26;28.50;;;15.80;;
6679;SDS011;3376;42.664;23.346;2022-12-07T12:26:02;16.10;;;14.17;;
6679;SDS011;3376;42.664;23.346;2022-12-07T12:28:32;17.07;;;13.57;;
6679;SDS011;3376;42.664;23.346;2022-12-07T12:31:09;16.50;;;13.43;;
6679;SDS011;3376;42.664;23.346;2022-12-07T12:33:42;32.43;;;13.80;;
6679;SDS011;3376;42.664;23.346;2022-12-07T12:36:21;14.80;;;13.30;;
6679;SDS011;3376;42.664;23.346;2022-12-07T12:38:51;18.17;;;13.87;;
6679;SDS011;3376;42.664;23.346;2022-12-07T12:41:55;15.80;;;13.70;;
6679;SDS011;3376;42.664;23.346;2022-12-07T12:44:39;14.33;;;12.60;;
6679;SDS011;3376;42.664;23.346;2022-12-07T12:50:30;14.57;;;12.60;;
6679;SDS011;3376;42.664;23.346;2022-12-07T12:53:00;14.90;;;13.47;;
6679;SDS011;3376;42.664;23.346;2022-12-07T12:58:42;21.77;;;14.47;;
6679;SDS011;3376;42.664;23.346;2022-12-07T13:04:21;15.47;;;13.00;;
6679;SDS011;3376;42.664;23.346;2022-12-07T13:06:51;20.93;;;13.17;;
6679;SDS011;3376;42.664;23.346;2022-12-07T13:09:21;14.75;;;12.55;;
6679;SDS011;3376;42.664;23.346;2022-12-07T13:11:55;13.45;;;12.15;;
6679;SDS011;3376;42.664;23.346;2022-12-07T13:14:39;13.07;;;11.65;;
6679;SDS011;3376;42.664;23.346;2022-12-07T13:23:12;19.10;;;13.10;;
6679;SDS011;3376;42.664;23.346;2022-12-07T13:25:46;17.25;;;12.43;;
6679;SDS011;3376;42.664;23.346;2022-12-07T13:28:18;13.50;;;11.68;;
6679;SDS011;3376;42.664;23.346;2022-12-07T13:30:52;12.82;;;11.57;;
6679;SDS011;3376;42.664;23.346;2022-12-07T13:33:29;12.25;;;11.20;;
6679;SDS011;3376;42.664;23.346;2022-12-07T13:35:56;12.25;;;11.10;;
6679;SDS011;3376;42.664;23.346;2022-12-07T13:38:27;12.23;;;11.10;;
6679;SDS011;3376;42.664;23.346;2022-12-07T13:41:04;13.13;;;11.63;;
6679;SDS011;3376;42.664;23.346;2022-12-07T13:43:45;12.70;;;11.45;;
6679;SDS011;3376;42.664;23.346;2022-12-07T13:46:15;13.82;;;12.48;;
6679;SDS011;3376;42.664;23.346;2022-12-07T13:48:44;13.43;;;11.45;;
6679;SDS011;3376;42.664;23.346;2022-12-07T13:51:17;12.23;;;11.07;;
6679;SDS011;3376;42.664;23.346;2022-12-07T13:53:49;15.52;;;11.55;;
6679;SDS011;3376;42.664;23.346;2022-12-07T13:56:20;16.50;;;12.30;;
6679;SDS011;3376;42.664;23.346;2022-12-07T13:58:48;15.35;;;12.85;;
6679;SDS011;3376;42.664;23.346;2022-12-07T14:01:15;27.97;;;14.07;;
6679;SDS011;3376;42.664;23.346;2022-12-07T14:03:41;14.40;;;12.90;;
6679;SDS011;3376;42.664;23.346;2022-12-07T14:06:19;15.83;;;13.00;;
6679;SDS011;3376;42.664;23.346;2022-12-07T14:09:05;19.57;;;13.30;;
6679;SDS011;3376;42.664;23.346;2022-12-07T14:11:44;13.70;;;12.23;;
6679;SDS011;3376;42.664;23.346;2022-12-07T14:14:11;20.07;;;12.53;;
6679;SDS011;3376;42.664;23.346;2022-12-07T14:16:41;18.07;;;13.80;;
6679;SDS011;3376;42.664;23.346;2022-12-07T14:22:07;17.17;;;13.73;;
6679;SDS011;3376;42.664;23.346;2022-12-07T14:24:41;17.23;;;13.73;;
6679;SDS011;3376;42.664;23.346;2022-12-07T14:27:17;14.80;;;13.27;;
6679;SDS011;3376;42.664;23.346;2022-12-07T14:29:45;19.10;;;13.00;;
6679;SDS011;3376;42.664;23.346;2022-12-07T14:32:18;19.03;;;13.47;;
6679;SDS011;3376;42.664;23.346;2022-12-07T14:34:53;18.40;;;14.37;;
6679;SDS011;3376;42.664;23.346;2022-12-07T14:37:20;22.87;;;13.13;;
6679;SDS011;3376;42.664;23.346;2022-12-07T14:39:47;23.80;;;13.27;;
6679;SDS011;3376;42.664;23.346;2022-12-07T14:42:14;21.47;;;14.10;;
6679;SDS011;3376;42.664;23.346;2022-12-07T14:44:42;23.33;;;14.20;;
6679;SDS011;3376;42.664;23.346;2022-12-07T14:47:09;18.83;;;14.57;;
6679;SDS011;3376;42.664;23.346;2022-12-07T14:49:36;22.27;;;15.03;;
6679;SDS011;3376;42.664;23.346;2022-12-07T14:52:03;22.90;;;14.30;;
6679;SDS011;3376;42.664;23.346;2022-12-07T14:54:32;22.63;;;12.50;;
6679;SDS011;3376;42.664;23.346;2022-12-07T14:56:59;18.90;;;13.60;;
6679;SDS011;3376;42.664;23.346;2022-12-07T14:59:26;18.50;;;12.57;;
6679;SDS011;3376;42.664;23.346;2022-12-07T15:01:54;24.97;;;14.53;;
6679;SDS011;3376;42.664;23.346;2022-12-07T15:04:20;20.27;;;13.53;;
6679;SDS011;3376;42.664;23.346;2022-12-07T15:06:54;28.43;;;13.90;;
6679;SDS011;3376;42.664;23.346;2022-12-07T15:09:22;26.13;;;13.60;;
6679;SDS011;3376;42.664;23.346;2022-12-07T15:11:49;19.00;;;13.40;;
6679;SDS011;3376;42.664;23.346;2022-12-07T15:14:16;23.13;;;13.00;;